createdAt,value
2019-05-30T00:00:25.399Z,7.37
2019-05-30T00:02:27.656Z,6.65
2019-05-30T00:04:29.984Z,6.08
2019-05-30T00:06:32.310Z,7.05
2019-05-30T00:08:34.536Z,6.22
2019-05-30T00:10:36.673Z,8.13
2019-05-30T00:12:38.778Z,9.78
2019-05-30T00:14:41.996Z,10.20
2019-05-30T00:16:44.214Z,6.67
2019-05-30T00:20:48.564Z,8.18
2019-05-30T00:22:50.658Z,9.35
2019-05-30T00:24:52.918Z,7.87
2019-05-30T00:26:56.205Z,8.15
2019-05-30T00:28:58.365Z,6.85
2019-05-30T00:31:00.831Z,8.53
2019-05-30T00:33:03.547Z,7.33
2019-05-30T00:35:07.235Z,8.30
2019-05-30T00:37:09.810Z,8.45
2019-05-30T00:39:11.917Z,9.15
2019-05-30T00:41:14.060Z,8.95
2019-05-30T00:43:16.101Z,12.00
2019-05-30T00:45:21.269Z,9.95
2019-05-30T00:47:22.795Z,12.65
2019-05-30T00:49:25.038Z,14.63
2019-05-30T00:53:29.070Z,15.75
2019-05-30T00:55:31.203Z,17.10
2019-05-30T00:57:33.205Z,17.73
2019-05-30T00:59:36.474Z,18.55
2019-05-30T01:01:40.359Z,16.93
2019-05-30T01:03:42.409Z,20.37
2019-05-30T01:05:44.430Z,18.73
2019-05-30T01:07:46.466Z,21.07
2019-05-30T01:09:48.541Z,21.57
2019-05-30T01:11:50.585Z,20.70
2019-05-30T01:13:52.856Z,20.60
2019-05-30T01:15:54.972Z,17.42
2019-05-30T01:17:57.021Z,22.48
2019-05-30T01:19:59.162Z,20.52
2019-05-30T01:22:01.329Z,20.32
2019-05-30T01:24:03.937Z,19.65
2019-05-30T01:26:05.950Z,21.65
2019-05-30T01:28:08.249Z,26.17
2019-05-30T01:30:10.690Z,23.70
2019-05-30T01:32:30.544Z,21.68
2019-05-30T01:34:32.682Z,23.55
2019-05-30T01:36:34.858Z,26.77
2019-05-30T01:38:37.052Z,25.20
2019-05-30T01:40:39.212Z,23.45
2019-05-30T01:42:41.377Z,30.00
2019-05-30T01:44:43.651Z,24.85
2019-05-30T01:46:45.694Z,26.35
2019-05-30T01:48:47.713Z,28.47
2019-05-30T01:50:50.353Z,22.27
2019-05-30T01:54:54.333Z,22.58
2019-05-30T01:56:56.737Z,24.25
2019-05-30T02:01:17.980Z,21.33
2019-05-30T02:03:05.485Z,26.17
2019-05-30T02:05:07.823Z,24.95
2019-05-30T02:07:10.718Z,28.35
2019-05-30T02:09:12.995Z,24.98
2019-05-30T02:11:15.001Z,27.17
2019-05-30T02:13:16.979Z,28.83
2019-05-30T02:15:19.286Z,26.17
2019-05-30T02:17:21.352Z,24.70
2019-05-30T02:19:23.370Z,25.70
2019-05-30T02:21:25.880Z,25.23
2019-05-30T02:25:30.836Z,25.45
2019-05-30T02:27:33.108Z,25.15
2019-05-30T02:29:35.178Z,25.55
2019-05-30T02:31:39.419Z,29.10
2019-05-30T02:33:41.329Z,31.05
2019-05-30T02:35:43.362Z,31.57
2019-05-30T02:37:45.441Z,31.50
2019-05-30T02:39:47.915Z,33.18
2019-05-30T02:43:51.437Z,38.65
2019-05-30T02:45:53.691Z,37.53
2019-05-30T02:47:55.947Z,40.43
2019-05-30T02:49:58.213Z,41.20
2019-05-30T02:52:02.497Z,40.95
2019-05-30T02:54:06.982Z,40.75
2019-05-30T02:56:10.301Z,36.50
2019-05-30T02:58:13.527Z,37.73
2019-05-30T03:00:20.514Z,45.05
2019-05-30T03:02:22.705Z,43.92
2019-05-30T03:04:24.957Z,44.55
2019-05-30T03:06:27.181Z,42.15
2019-05-30T03:08:29.670Z,45.80
2019-05-30T03:12:33.911Z,50.78
2019-05-30T03:14:35.897Z,49.27
2019-05-30T03:16:38.365Z,49.73
2019-05-30T03:18:41.385Z,49.13
2019-05-30T03:20:43.559Z,46.92
2019-05-30T03:22:46.894Z,50.20
2019-05-30T03:24:49.095Z,53.60
2019-05-30T03:26:52.206Z,46.28
2019-05-30T03:28:54.513Z,46.80
2019-05-30T03:30:57.749Z,51.98
2019-05-30T03:33:07.807Z,54.08
2019-05-30T03:35:09.179Z,49.70
2019-05-30T03:37:16.673Z,46.80
2019-05-30T03:39:14.522Z,55.20
2019-05-30T03:41:17.026Z,51.73
2019-05-30T03:43:19.021Z,59.90
2019-05-30T03:45:23.166Z,48.98
2019-05-30T03:47:29.044Z,57.45
2019-05-30T03:49:34.973Z,46.25
2019-05-30T03:51:40.289Z,48.98
2019-05-30T03:53:43.169Z,45.30
2019-05-30T03:55:49.435Z,51.68
2019-05-30T03:57:59.140Z,44.30
2019-05-30T04:00:06.032Z,49.93
2019-05-30T04:02:55.097Z,48.95
2019-05-30T04:04:48.950Z,48.85
2019-05-30T04:06:56.713Z,48.58
2019-05-30T04:09:07.009Z,50.28
2019-05-30T04:11:14.770Z,44.40
2019-05-30T04:13:45.414Z,48.58
2019-05-30T04:15:47.444Z,49.65
2019-05-30T04:17:49.470Z,44.65
2019-05-30T04:19:51.529Z,41.20
2019-05-30T04:21:53.880Z,44.70
2019-05-30T04:23:55.931Z,45.88
2019-05-30T04:26:00.534Z,48.02
2019-05-30T04:28:01.894Z,49.23
2019-05-30T04:30:04.348Z,45.88
2019-05-30T04:34:10.321Z,46.28
2019-05-30T04:36:12.568Z,46.83
2019-05-30T04:40:19.688Z,53.33
2019-05-30T04:42:22.121Z,49.60
2019-05-30T04:44:24.294Z,51.92
2019-05-30T04:46:26.328Z,48.20
2019-05-30T04:48:28.330Z,50.67
2019-05-30T04:50:30.419Z,56.88
2019-05-30T04:52:32.421Z,53.40
2019-05-30T04:54:34.492Z,49.63
2019-05-30T04:56:36.700Z,50.33
2019-05-30T04:58:42.274Z,43.83
2019-05-30T05:00:42.661Z,46.15
2019-05-30T05:02:44.755Z,41.15
2019-05-30T05:04:46.847Z,47.10
2019-05-30T05:06:48.873Z,35.65
2019-05-30T05:08:51.374Z,39.18
2019-05-30T05:12:55.000Z,33.95
2019-05-30T05:14:57.408Z,41.68
2019-05-30T05:16:59.438Z,35.52
2019-05-30T05:19:01.473Z,36.28
2019-05-30T05:21:03.595Z,35.30
2019-05-30T05:23:06.065Z,37.67
2019-05-30T05:25:08.540Z,33.83
2019-05-30T05:29:13.955Z,36.30
2019-05-30T05:31:16.540Z,41.40
2019-05-30T05:33:18.943Z,34.15
2019-05-30T05:37:23.368Z,33.65
2019-05-30T05:39:25.630Z,40.60
2019-05-30T05:41:28.590Z,31.48
2019-05-30T05:43:30.843Z,42.13
2019-05-30T05:45:33.158Z,38.17
2019-05-30T05:47:35.366Z,40.85
2019-05-30T05:49:37.396Z,48.30
2019-05-30T05:51:39.962Z,41.58
2019-05-30T05:55:43.810Z,39.48
2019-05-30T05:57:45.852Z,33.02
2019-05-30T05:59:47.950Z,35.10
2019-05-30T06:01:50.142Z,35.92
2019-05-30T06:03:52.320Z,38.17
2019-05-30T06:05:54.372Z,34.95
2019-05-30T06:07:56.401Z,40.23
2019-05-30T06:09:58.817Z,37.60
2019-05-30T06:14:04.180Z,43.38
2019-05-30T06:16:06.508Z,40.43
2019-05-30T06:18:08.736Z,37.15
2019-05-30T06:20:11.102Z,34.05
2019-05-30T06:22:13.332Z,29.57
2019-05-30T06:24:15.573Z,35.50
2019-05-30T06:26:17.902Z,35.92
2019-05-30T06:28:20.456Z,36.53
2019-05-30T06:30:22.756Z,35.28
2019-05-30T06:32:24.758Z,33.55
2019-05-30T06:34:38.137Z,34.10
2019-05-30T06:36:30.941Z,36.08
2019-05-30T06:38:33.381Z,35.35
2019-05-30T06:40:35.581Z,34.20
2019-05-30T06:42:38.047Z,35.35
2019-05-30T06:44:40.090Z,29.65
2019-05-30T06:46:42.321Z,31.35
2019-05-30T06:48:44.352Z,35.98
2019-05-30T06:50:46.571Z,31.48
2019-05-30T06:52:48.567Z,39.88
2019-05-30T06:54:50.577Z,33.08
2019-05-30T06:56:53.006Z,31.15
2019-05-30T07:00:57.233Z,31.87
2019-05-30T07:02:59.352Z,31.85
2019-05-30T07:05:02.499Z,27.85
2019-05-30T07:07:06.134Z,25.97
2019-05-30T07:09:08.654Z,26.17
2019-05-30T07:11:10.684Z,28.60
2019-05-30T07:13:12.715Z,26.80
2019-05-30T07:15:14.970Z,26.80
2019-05-30T07:17:17.206Z,26.45
2019-05-30T07:19:19.260Z,29.50
2019-05-30T07:21:21.333Z,23.50
2019-05-30T07:23:24.106Z,32.63
2019-05-30T07:25:26.288Z,29.90
2019-05-30T07:27:28.318Z,26.87
2019-05-30T07:29:31.883Z,24.12
2019-05-30T07:31:34.520Z,24.23
2019-05-30T07:33:37.605Z,24.20
2019-05-30T07:35:40.060Z,26.87
2019-05-30T07:37:46.245Z,28.23
2019-05-30T07:39:46.289Z,31.12
2019-05-30T07:42:04.911Z,24.43
2019-05-30T07:43:52.702Z,28.70
2019-05-30T07:45:58.322Z,24.47
2019-05-30T07:47:58.884Z,27.00
2019-05-30T07:50:01.024Z,29.45
2019-05-30T07:52:03.151Z,25.30
2019-05-30T07:54:05.797Z,24.43
2019-05-30T07:56:08.230Z,24.10
2019-05-30T07:58:10.265Z,30.00
2019-05-30T08:00:14.351Z,26.35
2019-05-30T08:02:16.376Z,27.25
2019-05-30T08:04:18.431Z,27.60
2019-05-30T08:06:21.019Z,24.05
2019-05-30T08:08:23.182Z,25.72
2019-05-30T08:10:25.406Z,33.88
2019-05-30T08:12:28.006Z,25.02
2019-05-30T08:14:33.172Z,31.77
2019-05-30T08:16:35.606Z,24.15
2019-05-30T08:18:37.946Z,28.73
2019-05-30T08:20:41.471Z,21.50
2019-05-30T08:22:44.910Z,29.65
2019-05-30T08:24:46.971Z,26.60
2019-05-30T08:26:49.033Z,22.45
2019-05-30T08:28:52.347Z,22.45
2019-05-30T08:30:56.980Z,25.68
2019-05-30T08:32:59.660Z,26.23
2019-05-30T08:35:01.988Z,20.48
2019-05-30T08:37:04.457Z,25.80
2019-05-30T08:41:09.189Z,22.67
2019-05-30T08:43:11.226Z,24.10
2019-05-30T08:45:15.340Z,28.55
2019-05-30T08:47:17.414Z,21.90
2019-05-30T08:49:20.379Z,24.75
2019-05-30T08:53:24.528Z,22.30
2019-05-30T08:55:27.011Z,17.37
2019-05-30T08:59:32.416Z,22.65
2019-05-30T09:01:35.745Z,22.52
2019-05-30T09:03:38.483Z,20.35
2019-05-30T09:05:57.256Z,19.48
2019-05-30T09:07:44.740Z,22.77
2019-05-30T09:09:46.736Z,23.22
2019-05-30T09:11:48.836Z,26.30
2019-05-30T09:13:51.506Z,22.55
2019-05-30T09:15:53.545Z,18.73
2019-05-30T09:17:55.554Z,21.55
2019-05-30T09:19:57.890Z,17.82
2019-05-30T09:21:59.951Z,25.37
2019-05-30T09:24:02.085Z,22.48
2019-05-30T09:26:04.481Z,22.30
2019-05-30T09:30:09.049Z,22.48
2019-05-30T09:32:11.799Z,20.57
2019-05-30T09:34:14.155Z,16.67
2019-05-30T09:36:16.535Z,23.80
2019-05-30T09:38:18.915Z,24.98
2019-05-30T09:40:21.764Z,19.87
2019-05-30T09:42:24.011Z,20.85
2019-05-30T09:44:26.529Z,21.05
2019-05-30T09:48:30.790Z,21.95
2019-05-30T09:50:33.429Z,21.97
2019-05-30T09:52:36.164Z,23.10
2019-05-30T09:56:40.436Z,23.05
2019-05-30T09:58:43.838Z,18.15
2019-05-30T10:00:47.238Z,25.82
2019-05-30T10:02:50.652Z,22.22
2019-05-30T10:04:52.811Z,22.90
2019-05-30T10:06:55.075Z,24.43
2019-05-30T10:08:57.314Z,23.73
2019-05-30T10:10:59.564Z,25.37
2019-05-30T10:13:01.601Z,21.15
2019-05-30T10:15:05.051Z,21.07
2019-05-30T10:17:09.287Z,24.52
2019-05-30T10:19:11.419Z,21.07
2019-05-30T10:21:13.579Z,24.80
2019-05-30T10:23:15.889Z,24.95
2019-05-30T10:25:17.921Z,21.42
2019-05-30T10:27:20.085Z,25.50
2019-05-30T10:29:22.474Z,21.70
2019-05-30T10:31:24.506Z,20.35
2019-05-30T10:33:26.875Z,23.47
2019-05-30T10:37:32.590Z,21.57
2019-05-30T10:39:34.855Z,21.52
2019-05-30T10:41:36.878Z,26.30
2019-05-30T10:43:38.912Z,31.57
2019-05-30T10:45:41.187Z,21.90
2019-05-30T10:47:43.207Z,23.15
2019-05-30T10:49:46.838Z,22.00
2019-05-30T10:51:51.505Z,15.85
2019-05-30T10:53:54.111Z,19.90
2019-05-30T10:55:57.318Z,21.27
2019-05-30T10:57:59.867Z,23.62
2019-05-30T11:00:04.805Z,21.35
2019-05-30T11:02:07.079Z,21.90
2019-05-30T11:04:09.264Z,19.90
2019-05-30T11:07:01.255Z,19.10
2019-05-30T11:08:52.832Z,19.65
2019-05-30T11:10:55.119Z,18.62
2019-05-30T11:13:05.282Z,17.37
2019-05-30T11:15:01.590Z,16.37
2019-05-30T11:17:03.677Z,17.85
2019-05-30T11:19:07.736Z,23.27
2019-05-30T11:21:10.187Z,17.80
2019-05-30T11:25:13.862Z,22.50
2019-05-30T11:27:16.327Z,17.30
2019-05-30T11:31:21.425Z,15.70
2019-05-30T11:33:23.501Z,14.23
2019-05-30T11:35:26.310Z,14.13
2019-05-30T11:37:28.325Z,11.45
2019-05-30T11:39:30.639Z,13.90
2019-05-30T11:41:32.871Z,15.65
2019-05-30T11:43:34.946Z,12.15
2019-05-30T11:45:37.028Z,15.18
2019-05-30T11:47:39.275Z,14.30
2019-05-30T11:49:41.346Z,15.90
2019-05-30T11:51:43.402Z,15.28
2019-05-30T11:53:45.854Z,18.35
2019-05-30T11:55:48.072Z,16.00
2019-05-30T11:57:50.281Z,13.32
2019-05-30T11:59:52.561Z,14.28
2019-05-30T12:01:54.629Z,15.32
2019-05-30T12:03:56.986Z,15.75
2019-05-30T12:06:04.178Z,13.75
2019-05-30T12:08:06.179Z,18.45
2019-05-30T12:10:09.539Z,17.73
2019-05-30T12:12:11.786Z,14.68
2019-05-30T12:16:16.213Z,18.35
2019-05-30T12:18:18.389Z,16.15
2019-05-30T12:20:20.504Z,16.05
2019-05-30T12:22:22.577Z,14.10
2019-05-30T12:24:24.649Z,15.90
2019-05-30T12:26:26.800Z,23.52
2019-05-30T12:28:28.912Z,18.12
2019-05-30T12:30:31.278Z,19.87
2019-05-30T12:32:33.446Z,14.25
2019-05-30T12:34:35.484Z,16.42
2019-05-30T12:36:37.807Z,15.28
2019-05-30T12:38:39.829Z,14.90
2019-05-30T12:40:43.094Z,18.67
2019-05-30T12:42:45.177Z,20.30
2019-05-30T12:44:47.277Z,19.75
2019-05-30T12:46:49.302Z,13.08
2019-05-30T12:48:51.859Z,16.77
2019-05-30T12:50:57.124Z,21.17
2019-05-30T12:53:00.461Z,16.48
2019-05-30T12:55:04.508Z,18.23
2019-05-30T12:57:07.014Z,20.40
2019-05-30T12:59:09.465Z,13.78
2019-05-30T13:01:12.049Z,14.20
2019-05-30T13:03:14.178Z,15.45
2019-05-30T13:05:16.249Z,20.60
2019-05-30T13:07:18.731Z,13.93
2019-05-30T13:09:21.822Z,19.10
2019-05-30T13:11:23.864Z,16.62
2019-05-30T13:13:26.475Z,16.25
2019-05-30T13:17:30.521Z,15.13
2019-05-30T13:19:32.657Z,16.10
2019-05-30T13:21:34.955Z,13.30
2019-05-30T13:23:37.399Z,19.05
2019-05-30T13:27:41.468Z,17.73
2019-05-30T13:29:43.550Z,16.90
2019-05-30T13:31:46.286Z,17.50
2019-05-30T13:33:48.361Z,20.55
2019-05-30T13:35:50.621Z,22.73
2019-05-30T13:37:53.348Z,24.45
2019-05-30T13:39:55.513Z,24.15
2019-05-30T13:41:57.713Z,19.80
2019-05-30T13:44:03.254Z,21.42
2019-05-30T13:46:04.657Z,18.82
2019-05-30T13:50:14.193Z,17.85
2019-05-30T13:52:15.900Z,19.55
2019-05-30T13:54:18.063Z,20.48
2019-05-30T13:56:20.294Z,18.52
2019-05-30T13:58:22.425Z,24.18
2019-05-30T14:00:24.705Z,23.90
2019-05-30T14:02:27.204Z,17.10
2019-05-30T14:06:31.634Z,15.78
2019-05-30T14:10:37.813Z,15.30
2019-05-30T14:12:40.070Z,15.45
2019-05-30T14:14:42.341Z,18.57
2019-05-30T14:16:44.380Z,16.23
2019-05-30T14:18:46.443Z,16.85
2019-05-30T14:20:48.630Z,16.23
2019-05-30T14:22:50.711Z,16.10
2019-05-30T14:24:52.950Z,17.32
2019-05-30T14:26:54.952Z,15.10
2019-05-30T14:28:57.201Z,14.47
2019-05-30T14:30:59.383Z,13.18
2019-05-30T14:33:02.095Z,16.17
2019-05-30T14:35:06.404Z,16.67
2019-05-30T14:37:08.743Z,12.63
2019-05-30T14:39:11.277Z,9.28
2019-05-30T14:41:13.570Z,11.38
2019-05-30T14:43:15.587Z,11.05
2019-05-30T14:45:20.432Z,7.03
2019-05-30T14:47:22.697Z,12.10
2019-05-30T14:49:24.728Z,8.98
2019-05-30T14:51:28.174Z,11.73
2019-05-30T14:53:30.729Z,11.45
2019-05-30T14:55:32.804Z,13.10
2019-05-30T14:57:35.160Z,8.20
2019-05-30T14:59:37.296Z,10.00
2019-05-30T15:01:39.410Z,12.80
2019-05-30T15:03:41.666Z,15.53
2019-05-30T15:05:43.783Z,11.43
2019-05-30T15:07:45.881Z,11.78
2019-05-30T15:09:49.188Z,12.78
2019-05-30T15:11:51.297Z,10.30
2019-05-30T15:13:54.438Z,12.60
2019-05-30T15:15:57.317Z,7.67
2019-05-30T15:17:59.469Z,10.35
2019-05-30T15:20:01.630Z,12.85
2019-05-30T15:22:05.534Z,14.23
2019-05-30T15:24:07.827Z,11.05
2019-05-30T15:26:09.999Z,9.53
2019-05-30T15:28:14.145Z,10.63
2019-05-30T15:30:17.027Z,12.73
2019-05-30T15:32:19.392Z,10.45
2019-05-30T15:34:21.909Z,13.85
2019-05-30T15:38:25.839Z,17.55
2019-05-30T15:40:27.991Z,11.80
2019-05-30T15:42:30.395Z,16.17
2019-05-30T15:44:32.772Z,15.68
2019-05-30T15:48:36.626Z,16.00
2019-05-30T15:50:38.787Z,11.28
2019-05-30T15:52:41.117Z,11.57
2019-05-30T15:54:43.199Z,9.40
2019-05-30T15:56:46.817Z,12.68
2019-05-30T16:00:51.358Z,12.45
2019-05-30T16:02:53.373Z,10.53
2019-05-30T16:04:55.579Z,11.65
2019-05-30T16:06:57.680Z,14.73
2019-05-30T16:08:59.745Z,11.15
2019-05-30T16:11:01.984Z,13.62
2019-05-30T16:13:05.264Z,17.25
2019-05-30T16:15:07.530Z,11.45
2019-05-30T16:17:11.757Z,15.68
2019-05-30T16:19:20.156Z,15.28
2019-05-30T16:21:18.666Z,11.22
2019-05-30T16:23:22.456Z,12.70
2019-05-30T16:25:25.809Z,19.17
2019-05-30T16:27:31.055Z,16.48
2019-05-30T16:29:32.234Z,18.07
2019-05-30T16:31:34.329Z,16.23
2019-05-30T16:33:36.597Z,16.93
2019-05-30T16:35:39.131Z,17.35
2019-05-30T16:37:41.209Z,17.70
2019-05-30T16:39:43.231Z,12.23
2019-05-30T16:41:45.509Z,19.57
2019-05-30T16:43:48.109Z,12.03
2019-05-30T16:45:50.312Z,21.70
2019-05-30T16:47:52.430Z,17.48
2019-05-30T16:49:54.594Z,16.10
2019-05-30T16:51:56.689Z,18.62
2019-05-30T16:53:58.754Z,19.50
2019-05-30T16:56:00.828Z,17.15
2019-05-30T16:58:03.012Z,22.07
2019-05-30T17:00:05.825Z,19.90
2019-05-30T17:02:08.048Z,15.65
2019-05-30T17:04:10.048Z,14.53
2019-05-30T17:06:12.411Z,19.80
2019-05-30T17:08:14.466Z,20.72
2019-05-30T17:10:23.379Z,20.90
2019-05-30T17:12:21.736Z,15.93
2019-05-30T17:14:24.043Z,19.42
2019-05-30T17:16:27.367Z,16.37
2019-05-30T17:18:29.800Z,13.65
2019-05-30T17:22:33.401Z,17.57
2019-05-30T17:24:36.265Z,16.20
2019-05-30T17:26:38.325Z,14.63
2019-05-30T17:28:40.548Z,16.48
2019-05-30T17:30:42.785Z,19.05
2019-05-30T17:32:44.993Z,16.10
2019-05-30T17:34:47.046Z,18.30
2019-05-30T17:36:49.591Z,17.40
2019-05-30T17:40:53.276Z,15.43
2019-05-30T17:42:55.374Z,14.65
2019-05-30T17:44:57.719Z,15.20
2019-05-30T17:46:59.858Z,21.93
2019-05-30T17:49:02.272Z,11.18
2019-05-30T17:53:06.279Z,19.37
2019-05-30T17:55:08.962Z,14.00
2019-05-30T17:57:12.333Z,15.28
2019-05-30T17:59:16.209Z,14.47
2019-05-30T18:01:18.422Z,18.52
2019-05-30T18:03:20.909Z,12.98
2019-05-30T18:07:24.943Z,18.40
2019-05-30T18:09:27.197Z,12.78
2019-05-30T18:11:29.467Z,13.08
2019-05-30T18:13:31.764Z,15.32
2019-05-30T18:15:33.909Z,18.65
2019-05-30T18:17:36.017Z,15.25
2019-05-30T18:19:38.212Z,16.05
2019-05-30T18:21:41.086Z,14.47
2019-05-30T18:23:44.847Z,12.95
2019-05-30T18:25:47.076Z,10.13
2019-05-30T18:27:49.130Z,14.05
2019-05-30T18:29:51.154Z,17.90
2019-05-30T18:31:53.982Z,16.62
2019-05-30T18:33:56.339Z,12.70
2019-05-30T18:35:58.403Z,11.90
2019-05-30T18:38:01.968Z,17.87
2019-05-30T18:40:05.145Z,10.72
2019-05-30T18:42:07.411Z,12.58
2019-05-30T18:44:10.028Z,9.95
2019-05-30T18:46:12.075Z,16.57
2019-05-30T18:48:14.239Z,13.93
2019-05-30T18:50:16.736Z,12.73
2019-05-30T18:52:18.889Z,13.32
2019-05-30T18:54:20.928Z,11.50
2019-05-30T18:56:23.119Z,15.63
2019-05-30T18:58:25.258Z,15.08
2019-05-30T19:00:27.413Z,13.38
2019-05-30T19:02:31.276Z,11.65
2019-05-30T19:04:33.712Z,14.23
2019-05-30T19:06:36.246Z,16.65
2019-05-30T19:08:38.779Z,13.25
2019-05-30T19:10:40.874Z,13.80
2019-05-30T19:12:44.323Z,14.40
2019-05-30T19:14:46.494Z,8.78
2019-05-30T19:16:48.575Z,14.87
2019-05-30T19:18:50.901Z,16.73
2019-05-30T19:20:53.202Z,15.20
2019-05-30T19:22:55.250Z,12.85
2019-05-30T19:24:58.553Z,15.40
2019-05-30T19:27:00.762Z,13.55
2019-05-30T19:29:02.903Z,13.15
2019-05-30T19:31:05.104Z,16.93
2019-05-30T19:33:07.406Z,13.72
2019-05-30T19:35:10.223Z,15.38
2019-05-30T19:37:12.497Z,13.13
2019-05-30T19:39:14.930Z,14.45
2019-05-30T19:41:17.025Z,13.95
2019-05-30T19:43:19.074Z,9.88
2019-05-30T19:45:21.646Z,16.07
2019-05-30T19:47:23.722Z,16.37
2019-05-30T19:49:26.057Z,15.15
2019-05-30T19:51:28.724Z,18.00
2019-05-30T19:53:31.001Z,17.82
2019-05-30T19:55:33.321Z,16.00
2019-05-30T19:57:35.744Z,17.00
2019-05-30T20:01:40.448Z,18.42
2019-05-30T20:05:46.386Z,19.62
2019-05-30T20:07:48.467Z,15.83
2019-05-30T20:10:00.885Z,15.90
2019-05-30T20:12:03.185Z,14.55
2019-05-30T20:14:00.391Z,15.68
2019-05-30T20:16:02.448Z,21.40
2019-05-30T20:18:04.610Z,18.90
2019-05-30T20:20:07.299Z,15.83
2019-05-30T20:22:09.892Z,13.10
2019-05-30T20:24:12.281Z,16.87
2019-05-30T20:26:14.582Z,19.05
2019-05-30T20:28:17.019Z,16.42
2019-05-30T20:34:24.330Z,14.58
2019-05-30T20:36:26.449Z,16.25
2019-05-30T20:38:28.847Z,12.68
2019-05-30T20:40:32.468Z,13.95
2019-05-30T20:42:34.743Z,14.78
2019-05-30T20:44:36.957Z,14.10
2019-05-30T20:46:39.255Z,15.30
2019-05-30T20:48:43.634Z,15.90
2019-05-30T20:50:45.320Z,12.95
2019-05-30T20:52:47.724Z,15.05
2019-05-30T20:56:52.031Z,14.18
2019-05-30T20:58:54.899Z,15.83
2019-05-30T21:00:57.091Z,19.35
2019-05-30T21:02:59.232Z,16.95
2019-05-30T21:05:01.602Z,15.60
2019-05-30T21:09:06.229Z,17.32
2019-05-30T21:11:09.818Z,14.63
2019-05-30T21:13:12.070Z,12.25
2019-05-30T21:15:14.306Z,14.87
2019-05-30T21:17:18.802Z,19.42
2019-05-30T21:19:20.943Z,18.95
2019-05-30T21:21:22.990Z,16.15
2019-05-30T21:23:25.057Z,15.78
2019-05-30T21:25:27.528Z,14.50
2019-05-30T21:29:31.455Z,15.03
2019-05-30T21:31:33.944Z,15.50
2019-05-30T21:35:37.952Z,16.85
2019-05-30T21:37:39.973Z,14.65
2019-05-30T21:39:42.114Z,19.92
2019-05-30T21:41:44.624Z,18.60
2019-05-30T21:43:46.925Z,18.37
2019-05-30T21:45:49.091Z,15.40
2019-05-30T21:47:51.254Z,21.35
2019-05-30T21:51:09.682Z,19.65
2019-05-30T21:53:11.759Z,22.52
2019-05-30T21:55:15.547Z,18.57
2019-05-30T21:57:17.642Z,16.20
2019-05-30T21:59:20.019Z,20.70
2019-05-30T22:01:31.669Z,18.35
2019-05-30T22:03:33.852Z,16.50
2019-05-30T22:05:36.165Z,17.27
2019-05-30T22:07:38.254Z,21.50
2019-05-30T22:09:41.201Z,18.65
2019-05-30T22:11:43.711Z,16.02
2019-05-30T22:13:45.739Z,18.02
2019-05-30T22:15:48.249Z,19.23
2019-05-30T22:19:52.473Z,18.40
2019-05-30T22:21:54.909Z,21.50
2019-05-30T22:23:56.938Z,19.55
2019-05-30T22:25:59.327Z,23.35
2019-05-30T22:28:01.330Z,21.20
2019-05-30T22:30:04.130Z,19.95
2019-05-30T22:32:07.398Z,25.00
2019-05-30T22:34:09.472Z,20.60
2019-05-30T22:36:11.535Z,18.85
2019-05-30T22:38:13.527Z,24.43
2019-05-30T22:40:15.561Z,24.80
2019-05-30T22:42:17.850Z,21.33
2019-05-30T22:44:20.047Z,20.02
2019-05-30T22:46:22.091Z,21.77
2019-05-30T22:48:24.336Z,27.80
2019-05-30T22:50:26.371Z,22.60
2019-05-30T22:52:28.367Z,21.85
2019-05-30T22:54:30.564Z,27.07
2019-05-30T22:56:32.895Z,21.27
2019-05-30T22:58:35.072Z,29.60
2019-05-30T23:00:37.113Z,24.47
2019-05-30T23:02:39.304Z,24.05
2019-05-30T23:04:41.360Z,24.00
2019-05-30T23:06:43.550Z,26.50
2019-05-30T23:08:46.382Z,24.95
2019-05-30T23:10:49.641Z,24.95
2019-05-30T23:12:52.062Z,25.17
2019-05-30T23:14:54.347Z,31.10
2019-05-30T23:16:56.705Z,30.20
2019-05-30T23:18:58.755Z,34.08
2019-05-30T23:21:00.903Z,25.12
2019-05-30T23:23:02.983Z,24.05
2019-05-30T23:25:05.237Z,25.75
2019-05-30T23:27:08.358Z,29.95
2019-05-30T23:29:10.749Z,24.43
2019-05-30T23:31:13.058Z,32.80
2019-05-30T23:33:15.209Z,31.73
2019-05-30T23:35:17.285Z,32.28
2019-05-30T23:37:19.488Z,27.60
2019-05-30T23:39:21.579Z,28.83
2019-05-30T23:41:23.724Z,31.23
2019-05-30T23:43:26.554Z,20.37
2019-05-30T23:45:28.618Z,32.15
2019-05-30T23:47:30.773Z,29.45
2019-05-30T23:49:33.470Z,28.00
2019-05-30T23:51:35.867Z,36.68
2019-05-30T23:53:38.111Z,40.48
2019-05-30T23:55:40.502Z,25.32
2019-05-30T23:57:42.633Z,25.50
2019-05-30T23:59:44.900Z,29.25
